sensor_id;sensor_type;location;lat;lon;timestamp;temperature;humidity
70271;SHT31;57680;54.292;18.598;2022-08-19T00:01:15;21.38;90.08
70271;SHT31;57680;54.292;18.598;2022-08-19T00:03:40;21.32;90.36
70271;SHT31;57680;54.292;18.598;2022-08-19T00:06:06;21.24;90.39
70271;SHT31;57680;54.292;18.598;2022-08-19T00:08:32;21.23;90.82
70271;SHT31;57680;54.292;18.598;2022-08-19T00:10:57;21.17;90.72
70271;SHT31;57680;54.292;18.598;2022-08-19T00:13:23;21.15;90.70
70271;SHT31;57680;54.292;18.598;2022-08-19T00:15:48;21.13;90.56
70271;SHT31;57680;54.292;18.598;2022-08-19T00:18:14;21.06;90.58
70271;SHT31;57680;54.292;18.598;2022-08-19T00:20:39;21.01;90.64
70271;SHT31;57680;54.292;18.598;2022-08-19T00:23:06;20.97;90.68
70271;SHT31;57680;54.292;18.598;2022-08-19T00:25:32;20.93;90.76
70271;SHT31;57680;54.292;18.598;2022-08-19T00:27:58;20.89;90.98
70271;SHT31;57680;54.292;18.598;2022-08-19T00:30:24;20.91;91.26
70271;SHT31;57680;54.292;18.598;2022-08-19T00:32:52;20.86;91.53
70271;SHT31;57680;54.292;18.598;2022-08-19T00:35:20;20.80;91.57
70271;SHT31;57680;54.292;18.598;2022-08-19T00:37:49;20.76;91.67
70271;SHT31;57680;54.292;18.598;2022-08-19T00:40:15;20.73;91.64
70271;SHT31;57680;54.292;18.598;2022-08-19T00:42:41;20.70;91.69
70271;SHT31;57680;54.292;18.598;2022-08-19T00:45:15;20.70;91.70
70271;SHT31;57680;54.292;18.598;2022-08-19T00:47:43;20.69;91.60
70271;SHT31;57680;54.292;18.598;2022-08-19T00:50:12;20.62;91.57
70271;SHT31;57680;54.292;18.598;2022-08-19T00:52:42;20.60;91.58
70271;SHT31;57680;54.292;18.598;2022-08-19T00:55:14;20.56;91.58
70271;SHT31;57680;54.292;18.598;2022-08-19T00:57:44;20.51;91.64
70271;SHT31;57680;54.292;18.598;2022-08-19T01:00:14;20.48;91.64
70271;SHT31;57680;54.292;18.598;2022-08-19T01:02:41;20.48;91.66
70271;SHT31;57680;54.292;18.598;2022-08-19T01:05:26;20.43;91.67
70271;SHT31;57680;54.292;18.598;2022-08-19T01:07:54;20.38;91.59
70271;SHT31;57680;54.292;18.598;2022-08-19T01:10:25;20.32;91.60
70271;SHT31;57680;54.292;18.598;2022-08-19T01:12:52;20.26;91.75
70271;SHT31;57680;54.292;18.598;2022-08-19T01:15:21;20.28;92.08
70271;SHT31;57680;54.292;18.598;2022-08-19T01:17:48;20.25;92.23
70271;SHT31;57680;54.292;18.598;2022-08-19T01:20:16;20.26;92.27
70271;SHT31;57680;54.292;18.598;2022-08-19T01:22:52;20.38;92.24
70271;SHT31;57680;54.292;18.598;2022-08-19T01:25:22;20.43;91.84
70271;SHT31;57680;54.292;18.598;2022-08-19T01:27:50;20.42;91.69
70271;SHT31;57680;54.292;18.598;2022-08-19T01:30:22;20.48;91.50
70271;SHT31;57680;54.292;18.598;2022-08-19T01:32:49;20.48;91.48
70271;SHT31;57680;54.292;18.598;2022-08-19T01:35:15;20.52;91.65
70271;SHT31;57680;54.292;18.598;2022-08-19T01:37:44;20.53;91.57
70271;SHT31;57680;54.292;18.598;2022-08-19T01:40:10;20.57;91.40
70271;SHT31;57680;54.292;18.598;2022-08-19T01:42:36;20.56;91.26
70271;SHT31;57680;54.292;18.598;2022-08-19T01:45:03;20.52;91.12
70271;SHT31;57680;54.292;18.598;2022-08-19T01:47:29;20.42;90.93
70271;SHT31;57680;54.292;18.598;2022-08-19T01:49:54;20.32;90.99
70271;SHT31;57680;54.292;18.598;2022-08-19T01:52:20;20.20;91.13
70271;SHT31;57680;54.292;18.598;2022-08-19T01:54:46;20.14;91.31
70271;SHT31;57680;54.292;18.598;2022-08-19T01:57:13;20.08;91.54
70271;SHT31;57680;54.292;18.598;2022-08-19T01:59:41;20.07;91.85
70271;SHT31;57680;54.292;18.598;2022-08-19T02:02:07;20.02;92.01
70271;SHT31;57680;54.292;18.598;2022-08-19T02:04:34;19.95;92.26
70271;SHT31;57680;54.292;18.598;2022-08-19T02:07:01;19.97;92.67
70271;SHT31;57680;54.292;18.598;2022-08-19T02:09:26;19.98;92.65
70271;SHT31;57680;54.292;18.598;2022-08-19T02:11:52;20.04;92.72
70271;SHT31;57680;54.292;18.598;2022-08-19T02:14:18;20.05;92.74
70271;SHT31;57680;54.292;18.598;2022-08-19T02:16:44;20.08;92.84
70271;SHT31;57680;54.292;18.598;2022-08-19T02:19:09;20.14;92.58
70271;SHT31;57680;54.292;18.598;2022-08-19T02:21:36;20.20;92.31
70271;SHT31;57680;54.292;18.598;2022-08-19T02:24:03;20.20;92.20
70271;SHT31;57680;54.292;18.598;2022-08-19T02:26:28;20.21;92.24
70271;SHT31;57680;54.292;18.598;2022-08-19T02:28:55;20.26;92.28
70271;SHT31;57680;54.292;18.598;2022-08-19T02:31:23;20.29;92.10
70271;SHT31;57680;54.292;18.598;2022-08-19T02:33:49;20.26;91.61
70271;SHT31;57680;54.292;18.598;2022-08-19T02:36:16;20.25;91.57
70271;SHT31;57680;54.292;18.598;2022-08-19T02:38:43;20.18;91.65
70271;SHT31;57680;54.292;18.598;2022-08-19T02:41:29;20.18;91.72
70271;SHT31;57680;54.292;18.598;2022-08-19T02:43:58;20.17;91.72
70271;SHT31;57680;54.292;18.598;2022-08-19T02:46:26;20.15;91.70
70271;SHT31;57680;54.292;18.598;2022-08-19T02:48:54;20.11;91.66
70271;SHT31;57680;54.292;18.598;2022-08-19T02:51:23;20.11;91.78
70271;SHT31;57680;54.292;18.598;2022-08-19T02:53:49;20.10;91.77
70271;SHT31;57680;54.292;18.598;2022-08-19T02:56:15;20.14;91.86
70271;SHT31;57680;54.292;18.598;2022-08-19T02:58:41;20.12;91.84
70271;SHT31;57680;54.292;18.598;2022-08-19T03:01:08;20.15;91.87
70271;SHT31;57680;54.292;18.598;2022-08-19T03:03:35;20.18;91.85
70271;SHT31;57680;54.292;18.598;2022-08-19T03:06:12;20.18;91.84
70271;SHT31;57680;54.292;18.598;2022-08-19T03:08:41;20.21;91.89
70271;SHT31;57680;54.292;18.598;2022-08-19T03:11:33;20.18;91.82
70271;SHT31;57680;54.292;18.598;2022-08-19T03:13:58;20.17;91.88
70271;SHT31;57680;54.292;18.598;2022-08-19T03:16:26;20.21;91.75
70271;SHT31;57680;54.292;18.598;2022-08-19T03:18:53;20.26;91.20
70271;SHT31;57680;54.292;18.598;2022-08-19T03:21:23;20.33;90.86
70271;SHT31;57680;54.292;18.598;2022-08-19T03:23:53;20.48;90.23
70271;SHT31;57680;54.292;18.598;2022-08-19T03:26:18;20.52;89.92
70271;SHT31;57680;54.292;18.598;2022-08-19T03:28:44;20.62;89.54
70271;SHT31;57680;54.292;18.598;2022-08-19T03:31:16;20.68;89.35
70271;SHT31;57680;54.292;18.598;2022-08-19T03:33:42;20.72;89.31
70271;SHT31;57680;54.292;18.598;2022-08-19T03:36:17;20.75;89.45
70271;SHT31;57680;54.292;18.598;2022-08-19T03:38:46;20.79;90.09
70271;SHT31;57680;54.292;18.598;2022-08-19T03:41:18;20.82;90.25
70271;SHT31;57680;54.292;18.598;2022-08-19T03:43:45;20.83;90.22
70271;SHT31;57680;54.292;18.598;2022-08-19T03:46:16;20.87;90.07
70271;SHT31;57680;54.292;18.598;2022-08-19T03:48:43;20.90;90.00
70271;SHT31;57680;54.292;18.598;2022-08-19T03:51:20;20.97;89.75
70271;SHT31;57680;54.292;18.598;2022-08-19T03:53:47;21.10;89.30
70271;SHT31;57680;54.292;18.598;2022-08-19T03:56:14;21.27;88.67
70271;SHT31;57680;54.292;18.598;2022-08-19T03:58:40;21.42;87.97
70271;SHT31;57680;54.292;18.598;2022-08-19T04:01:11;21.61;87.18
70271;SHT31;57680;54.292;18.598;2022-08-19T04:03:38;21.78;86.22
70271;SHT31;57680;54.292;18.598;2022-08-19T04:06:22;22.02;85.05
70271;SHT31;57680;54.292;18.598;2022-08-19T04:08:50;22.20;84.46
70271;SHT31;57680;54.292;18.598;2022-08-19T04:11:19;22.29;83.83
70271;SHT31;57680;54.292;18.598;2022-08-19T04:13:49;22.37;83.44
70271;SHT31;57680;54.292;18.598;2022-08-19T04:16:17;22.40;83.34
70271;SHT31;57680;54.292;18.598;2022-08-19T04:18:44;22.29;83.43
70271;SHT31;57680;54.292;18.598;2022-08-19T04:21:16;22.40;82.96
70271;SHT31;57680;54.292;18.598;2022-08-19T04:23:42;22.77;82.08
70271;SHT31;57680;54.292;18.598;2022-08-19T04:26:12;23.21;80.73
70271;SHT31;57680;54.292;18.598;2022-08-19T04:28:38;23.45;79.79
70271;SHT31;57680;54.292;18.598;2022-08-19T04:31:04;23.83;78.70
70271;SHT31;57680;54.292;18.598;2022-08-19T04:33:30;24.04;77.01
70271;SHT31;57680;54.292;18.598;2022-08-19T04:35:55;24.25;76.54
70271;SHT31;57680;54.292;18.598;2022-08-19T04:38:23;24.01;75.69
70271;SHT31;57680;54.292;18.598;2022-08-19T04:40:50;24.27;76.03
70271;SHT31;57680;54.292;18.598;2022-08-19T04:43:51;24.61;74.74
70271;SHT31;57680;54.292;18.598;2022-08-19T04:46:17;24.82;73.39
70271;SHT31;57680;54.292;18.598;2022-08-19T04:48:45;24.51;72.88
70271;SHT31;57680;54.292;18.598;2022-08-19T04:51:11;24.06;74.36
70271;SHT31;57680;54.292;18.598;2022-08-19T04:53:40;24.16;73.71
70271;SHT31;57680;54.292;18.598;2022-08-19T04:56:11;24.27;73.24
70271;SHT31;57680;54.292;18.598;2022-08-19T04:58:40;23.83;74.45
70271;SHT31;57680;54.292;18.598;2022-08-19T05:01:08;23.22;76.26
70271;SHT31;57680;54.292;18.598;2022-08-19T05:03:35;23.09;77.67
70271;SHT31;57680;54.292;18.598;2022-08-19T05:06:09;22.90;78.15
70271;SHT31;57680;54.292;18.598;2022-08-19T05:08:37;22.71;78.45
70271;SHT31;57680;54.292;18.598;2022-08-19T05:11:12;22.68;78.64
70271;SHT31;57680;54.292;18.598;2022-08-19T05:13:39;22.78;78.66
70271;SHT31;57680;54.292;18.598;2022-08-19T05:16:05;22.95;78.08
70271;SHT31;57680;54.292;18.598;2022-08-19T05:18:31;24.20;76.56
70271;SHT31;57680;54.292;18.598;2022-08-19T05:21:18;25.17;72.49
70271;SHT31;57680;54.292;18.598;2022-08-19T05:24:04;25.97;68.40
70271;SHT31;57680;54.292;18.598;2022-08-19T05:26:33;26.15;66.91
70271;SHT31;57680;54.292;18.598;2022-08-19T05:28:59;26.36;64.63
70271;SHT31;57680;54.292;18.598;2022-08-19T05:31:25;26.36;66.73
70271;SHT31;57680;54.292;18.598;2022-08-19T05:33:50;26.02;67.52
70271;SHT31;57680;54.292;18.598;2022-08-19T05:36:16;26.40;67.61
70271;SHT31;57680;54.292;18.598;2022-08-19T05:38:41;26.77;66.33
70271;SHT31;57680;54.292;18.598;2022-08-19T05:41:09;26.01;64.78
70271;SHT31;57680;54.292;18.598;2022-08-19T05:43:36;25.63;67.90
70271;SHT31;57680;54.292;18.598;2022-08-19T05:46:03;25.38;68.53
70271;SHT31;57680;54.292;18.598;2022-08-19T05:48:29;24.99;69.79
70271;SHT31;57680;54.292;18.598;2022-08-19T05:50:56;24.98;70.70
70271;SHT31;57680;54.292;18.598;2022-08-19T05:53:23;24.82;71.71
70271;SHT31;57680;54.292;18.598;2022-08-19T05:55:49;24.82;71.35
70271;SHT31;57680;54.292;18.598;2022-08-19T05:58:14;25.41;70.07
70271;SHT31;57680;54.292;18.598;2022-08-19T06:00:42;25.19;70.99
70271;SHT31;57680;54.292;18.598;2022-08-19T06:03:08;25.15;70.72
70271;SHT31;57680;54.292;18.598;2022-08-19T06:05:35;25.43;69.50
70271;SHT31;57680;54.292;18.598;2022-08-19T06:08:01;25.71;69.77
70271;SHT31;57680;54.292;18.598;2022-08-19T06:10:27;25.66;69.60
70271;SHT31;57680;54.292;18.598;2022-08-19T06:12:53;25.50;70.23
70271;SHT31;57680;54.292;18.598;2022-08-19T06:15:19;25.97;69.21
70271;SHT31;57680;54.292;18.598;2022-08-19T06:17:44;26.05;67.47
70271;SHT31;57680;54.292;18.598;2022-08-19T06:20:13;25.87;67.83
70271;SHT31;57680;54.292;18.598;2022-08-19T06:22:41;26.82;63.46
70271;SHT31;57680;54.292;18.598;2022-08-19T06:25:07;27.03;63.60
70271;SHT31;57680;54.292;18.598;2022-08-19T06:27:34;27.21;63.10
70271;SHT31;57680;54.292;18.598;2022-08-19T06:30:02;27.24;64.06
70271;SHT31;57680;54.292;18.598;2022-08-19T06:32:28;27.12;62.05
70271;SHT31;57680;54.292;18.598;2022-08-19T06:34:54;26.63;65.32
70271;SHT31;57680;54.292;18.598;2022-08-19T06:37:20;26.84;65.18
70271;SHT31;57680;54.292;18.598;2022-08-19T06:39:47;26.93;64.29
70271;SHT31;57680;54.292;18.598;2022-08-19T06:42:13;26.80;65.38
70271;SHT31;57680;54.292;18.598;2022-08-19T06:44:43;26.61;64.47
70271;SHT31;57680;54.292;18.598;2022-08-19T06:47:12;26.86;65.28
70271;SHT31;57680;54.292;18.598;2022-08-19T06:49:38;27.55;63.63
70271;SHT31;57680;54.292;18.598;2022-08-19T06:52:04;27.85;62.51
70271;SHT31;57680;54.292;18.598;2022-08-19T06:54:30;28.12;61.57
70271;SHT31;57680;54.292;18.598;2022-08-19T06:56:57;28.21;63.14
70271;SHT31;57680;54.292;18.598;2022-08-19T06:59:24;28.40;59.92
70271;SHT31;57680;54.292;18.598;2022-08-19T07:01:55;28.10;61.39
70271;SHT31;57680;54.292;18.598;2022-08-19T07:04:26;28.13;61.07
70271;SHT31;57680;54.292;18.598;2022-08-19T07:07:01;28.00;61.42
70271;SHT31;57680;54.292;18.598;2022-08-19T07:09:28;27.75;60.36
70271;SHT31;57680;54.292;18.598;2022-08-19T07:11:54;27.70;62.38
70271;SHT31;57680;54.292;18.598;2022-08-19T07:14:25;27.88;60.39
70271;SHT31;57680;54.292;18.598;2022-08-19T07:16:54;28.20;60.09
70271;SHT31;57680;54.292;18.598;2022-08-19T07:19:21;28.43;60.48
70271;SHT31;57680;54.292;18.598;2022-08-19T07:21:49;28.55;59.12
70271;SHT31;57680;54.292;18.598;2022-08-19T07:24:16;28.24;60.69
70271;SHT31;57680;54.292;18.598;2022-08-19T07:26:42;28.34;60.87
70271;SHT31;57680;54.292;18.598;2022-08-19T07:29:10;28.64;60.63
70271;SHT31;57680;54.292;18.598;2022-08-19T07:31:35;28.28;60.06
70271;SHT31;57680;54.292;18.598;2022-08-19T07:34:04;28.54;61.06
70271;SHT31;57680;54.292;18.598;2022-08-19T07:36:34;28.96;60.73
70271;SHT31;57680;54.292;18.598;2022-08-19T07:39:04;28.98;58.52
70271;SHT31;57680;54.292;18.598;2022-08-19T07:41:30;28.87;58.45
70271;SHT31;57680;54.292;18.598;2022-08-19T07:43:58;28.99;59.10
70271;SHT31;57680;54.292;18.598;2022-08-19T07:46:23;29.47;59.24
70271;SHT31;57680;54.292;18.598;2022-08-19T07:48:50;29.57;57.02
70271;SHT31;57680;54.292;18.598;2022-08-19T07:51:19;29.52;58.45
70271;SHT31;57680;54.292;18.598;2022-08-19T07:53:47;29.56;58.52
70271;SHT31;57680;54.292;18.598;2022-08-19T07:56:14;29.85;58.45
70271;SHT31;57680;54.292;18.598;2022-08-19T07:58:41;29.97;57.15
70271;SHT31;57680;54.292;18.598;2022-08-19T08:01:09;30.13;57.31
70271;SHT31;57680;54.292;18.598;2022-08-19T08:03:35;29.84;58.43
70271;SHT31;57680;54.292;18.598;2022-08-19T08:06:20;30.13;57.23
70271;SHT31;57680;54.292;18.598;2022-08-19T08:09:05;30.42;55.64
70271;SHT31;57680;54.292;18.598;2022-08-19T08:12:05;30.51;54.71
70271;SHT31;57680;54.292;18.598;2022-08-19T08:14:39;30.59;55.33
70271;SHT31;57680;54.292;18.598;2022-08-19T08:17:07;30.46;55.62
70271;SHT31;57680;54.292;18.598;2022-08-19T08:19:33;30.31;55.05
70271;SHT31;57680;54.292;18.598;2022-08-19T08:22:00;30.17;55.16
70271;SHT31;57680;54.292;18.598;2022-08-19T08:24:29;30.17;55.45
70271;SHT31;57680;54.292;18.598;2022-08-19T08:26:56;30.04;55.39
70271;SHT31;57680;54.292;18.598;2022-08-19T08:29:22;30.08;55.02
70271;SHT31;57680;54.292;18.598;2022-08-19T08:31:48;30.34;54.61
70271;SHT31;57680;54.292;18.598;2022-08-19T08:34:14;30.63;55.06
70271;SHT31;57680;54.292;18.598;2022-08-19T08:36:42;30.65;53.68
70271;SHT31;57680;54.292;18.598;2022-08-19T08:39:20;30.93;53.14
70271;SHT31;57680;54.292;18.598;2022-08-19T08:42:01;30.73;51.49
70271;SHT31;57680;54.292;18.598;2022-08-19T08:47:18;30.89;53.13
70271;SHT31;57680;54.292;18.598;2022-08-19T08:49:51;31.38;52.64
70271;SHT31;57680;54.292;18.598;2022-08-19T08:52:23;31.60;50.46
70271;SHT31;57680;54.292;18.598;2022-08-19T08:54:52;31.58;48.58
70271;SHT31;57680;54.292;18.598;2022-08-19T08:57:29;31.44;51.11
70271;SHT31;57680;54.292;18.598;2022-08-19T09:00:00;31.34;49.26
70271;SHT31;57680;54.292;18.598;2022-08-19T09:02:28;31.48;50.37
70271;SHT31;57680;54.292;18.598;2022-08-19T09:04:54;31.67;50.90
70271;SHT31;57680;54.292;18.598;2022-08-19T09:15:38;31.85;48.79
70271;SHT31;57680;54.292;18.598;2022-08-19T09:18:05;31.98;48.16
70271;SHT31;57680;54.292;18.598;2022-08-19T09:20:33;31.88;47.00
70271;SHT31;57680;54.292;18.598;2022-08-19T09:22:59;31.89;47.76
70271;SHT31;57680;54.292;18.598;2022-08-19T09:25:25;31.62;48.38
70271;SHT31;57680;54.292;18.598;2022-08-19T09:27:52;31.85;48.90
70271;SHT31;57680;54.292;18.598;2022-08-19T09:30:27;31.74;48.33
70271;SHT31;57680;54.292;18.598;2022-08-19T09:32:54;32.05;48.17
70271;SHT31;57680;54.292;18.598;2022-08-19T09:35:25;32.19;45.95
70271;SHT31;57680;54.292;18.598;2022-08-19T09:37:52;32.52;46.51
70271;SHT31;57680;54.292;18.598;2022-08-19T09:40:18;32.37;46.56
70271;SHT31;57680;54.292;18.598;2022-08-19T09:42:44;32.06;47.15
70271;SHT31;57680;54.292;18.598;2022-08-19T09:45:12;31.89;46.67
70271;SHT31;57680;54.292;18.598;2022-08-19T09:47:37;31.72;46.29
70271;SHT31;57680;54.292;18.598;2022-08-19T09:50:08;32.09;47.09
70271;SHT31;57680;54.292;18.598;2022-08-19T09:52:34;32.44;46.16
70271;SHT31;57680;54.292;18.598;2022-08-19T09:55:05;32.66;44.67
70271;SHT31;57680;54.292;18.598;2022-08-19T09:57:32;32.56;46.01
70271;SHT31;57680;54.292;18.598;2022-08-19T09:59:57;32.71;45.21
70271;SHT31;57680;54.292;18.598;2022-08-19T10:02:23;32.63;44.82
70271;SHT31;57680;54.292;18.598;2022-08-19T10:04:50;32.97;44.53
70271;SHT31;57680;54.292;18.598;2022-08-19T10:07:51;33.25;43.82
70271;SHT31;57680;54.292;18.598;2022-08-19T10:10:17;32.67;44.74
70271;SHT31;57680;54.292;18.598;2022-08-19T10:12:42;32.26;45.88
70271;SHT31;57680;54.292;18.598;2022-08-19T10:15:13;32.23;45.20
70271;SHT31;57680;54.292;18.598;2022-08-19T10:17:38;33.01;43.93
70271;SHT31;57680;54.292;18.598;2022-08-19T10:20:04;32.96;44.40
70271;SHT31;57680;54.292;18.598;2022-08-19T10:22:30;32.70;43.12
70271;SHT31;57680;54.292;18.598;2022-08-19T10:24:56;32.80;44.10
70271;SHT31;57680;54.292;18.598;2022-08-19T10:27:22;33.21;42.10
70271;SHT31;57680;54.292;18.598;2022-08-19T10:29:47;32.99;43.60
70271;SHT31;57680;54.292;18.598;2022-08-19T10:32:13;32.76;44.12
70271;SHT31;57680;54.292;18.598;2022-08-19T10:34:39;32.93;44.26
70271;SHT31;57680;54.292;18.598;2022-08-19T10:37:05;32.84;44.45
70271;SHT31;57680;54.292;18.598;2022-08-19T10:39:33;33.14;43.53
70271;SHT31;57680;54.292;18.598;2022-08-19T10:41:59;33.27;42.08
70271;SHT31;57680;54.292;18.598;2022-08-19T10:44:25;33.55;42.12
70271;SHT31;57680;54.292;18.598;2022-08-19T10:46:50;33.59;42.65
70271;SHT31;57680;54.292;18.598;2022-08-19T10:49:17;33.00;43.51
70271;SHT31;57680;54.292;18.598;2022-08-19T10:51:44;32.28;43.38
70271;SHT31;57680;54.292;18.598;2022-08-19T10:54:28;31.86;45.53
70271;SHT31;57680;54.292;18.598;2022-08-19T10:57:14;31.75;46.21
70271;SHT31;57680;54.292;18.598;2022-08-19T10:59:39;31.86;46.57
70271;SHT31;57680;54.292;18.598;2022-08-19T11:02:08;31.81;45.37
70271;SHT31;57680;54.292;18.598;2022-08-19T11:04:36;31.98;46.01
70271;SHT31;57680;54.292;18.598;2022-08-19T11:07:03;32.13;45.35
70271;SHT31;57680;54.292;18.598;2022-08-19T11:09:29;32.46;45.50
70271;SHT31;57680;54.292;18.598;2022-08-19T11:11:55;32.15;43.69
70271;SHT31;57680;54.292;18.598;2022-08-19T11:14:23;32.01;45.66
70271;SHT31;57680;54.292;18.598;2022-08-19T11:16:50;32.25;43.90
70271;SHT31;57680;54.292;18.598;2022-08-19T11:19:17;32.13;44.23
70271;SHT31;57680;54.292;18.598;2022-08-19T11:21:47;32.08;45.64
70271;SHT31;57680;54.292;18.598;2022-08-19T11:24:21;32.05;44.55
70271;SHT31;57680;54.292;18.598;2022-08-19T11:26:49;32.21;45.15
70271;SHT31;57680;54.292;18.598;2022-08-19T11:29:16;32.42;44.30
70271;SHT31;57680;54.292;18.598;2022-08-19T11:31:47;32.33;44.20
70271;SHT31;57680;54.292;18.598;2022-08-19T11:34:17;32.16;45.41
70271;SHT31;57680;54.292;18.598;2022-08-19T11:36:44;31.99;46.42
70271;SHT31;57680;54.292;18.598;2022-08-19T11:39:13;31.61;45.55
70271;SHT31;57680;54.292;18.598;2022-08-19T11:41:39;31.26;46.14
70271;SHT31;57680;54.292;18.598;2022-08-19T11:44:05;31.48;46.40
70271;SHT31;57680;54.292;18.598;2022-08-19T11:46:34;31.67;45.92
70271;SHT31;57680;54.292;18.598;2022-08-19T11:49:00;32.05;45.91
70271;SHT31;57680;54.292;18.598;2022-08-19T11:51:27;32.32;45.82
70271;SHT31;57680;54.292;18.598;2022-08-19T11:53:55;32.33;44.68
70271;SHT31;57680;54.292;18.598;2022-08-19T11:56:22;32.19;44.03
70271;SHT31;57680;54.292;18.598;2022-08-19T11:58:48;32.48;46.01
70271;SHT31;57680;54.292;18.598;2022-08-19T12:01:16;32.36;44.73
70271;SHT31;57680;54.292;18.598;2022-08-19T12:03:44;32.52;44.61
70271;SHT31;57680;54.292;18.598;2022-08-19T12:06:12;32.55;43.64
70271;SHT31;57680;54.292;18.598;2022-08-19T12:08:39;32.39;44.11
70271;SHT31;57680;54.292;18.598;2022-08-19T12:11:05;32.37;43.27
70271;SHT31;57680;54.292;18.598;2022-08-19T12:13:34;32.56;44.08
70271;SHT31;57680;54.292;18.598;2022-08-19T12:16:00;32.57;44.58
70271;SHT31;57680;54.292;18.598;2022-08-19T12:18:26;32.70;44.61
70271;SHT31;57680;54.292;18.598;2022-08-19T12:20:53;32.86;44.21
70271;SHT31;57680;54.292;18.598;2022-08-19T12:23:20;33.03;43.37
70271;SHT31;57680;54.292;18.598;2022-08-19T12:25:47;33.07;41.98
70271;SHT31;57680;54.292;18.598;2022-08-19T12:28:20;33.11;42.24
70271;SHT31;57680;54.292;18.598;2022-08-19T12:30:48;33.12;41.83
70271;SHT31;57680;54.292;18.598;2022-08-19T12:33:14;33.06;41.29
70271;SHT31;57680;54.292;18.598;2022-08-19T12:35:41;33.10;41.11
70271;SHT31;57680;54.292;18.598;2022-08-19T12:38:08;33.30;41.11
70271;SHT31;57680;54.292;18.598;2022-08-19T12:40:34;33.27;41.26
70271;SHT31;57680;54.292;18.598;2022-08-19T12:42:59;33.08;40.72
70271;SHT31;57680;54.292;18.598;2022-08-19T12:45:25;33.04;42.43
70271;SHT31;57680;54.292;18.598;2022-08-19T12:47:51;33.08;41.45
70271;SHT31;57680;54.292;18.598;2022-08-19T12:50:18;32.80;41.52
70271;SHT31;57680;54.292;18.598;2022-08-19T12:52:44;32.66;43.39
70271;SHT31;57680;54.292;18.598;2022-08-19T12:55:10;32.64;42.59
70271;SHT31;57680;54.292;18.598;2022-08-19T12:57:37;32.70;42.42
70271;SHT31;57680;54.292;18.598;2022-08-19T13:00:15;32.83;41.94
70271;SHT31;57680;54.292;18.598;2022-08-19T13:02:44;32.70;43.11
70271;SHT31;57680;54.292;18.598;2022-08-19T13:05:15;32.39;44.12
70271;SHT31;57680;54.292;18.598;2022-08-19T13:07:42;32.49;42.12
70271;SHT31;57680;54.292;18.598;2022-08-19T13:10:11;32.80;42.84
70271;SHT31;57680;54.292;18.598;2022-08-19T13:12:37;32.99;42.84
70271;SHT31;57680;54.292;18.598;2022-08-19T13:15:04;33.10;42.44
70271;SHT31;57680;54.292;18.598;2022-08-19T13:17:30;32.87;42.17
70271;SHT31;57680;54.292;18.598;2022-08-19T13:19:56;32.96;43.15
70271;SHT31;57680;54.292;18.598;2022-08-19T13:22:21;32.73;42.50
70271;SHT31;57680;54.292;18.598;2022-08-19T13:24:47;32.88;43.05
70271;SHT31;57680;54.292;18.598;2022-08-19T13:27:14;32.84;43.37
70271;SHT31;57680;54.292;18.598;2022-08-19T13:29:40;32.96;41.59
70271;SHT31;57680;54.292;18.598;2022-08-19T13:32:24;32.99;41.65
70271;SHT31;57680;54.292;18.598;2022-08-19T13:35:09;33.04;41.89
70271;SHT31;57680;54.292;18.598;2022-08-19T13:37:34;33.07;41.60
70271;SHT31;57680;54.292;18.598;2022-08-19T13:40:10;33.10;42.19
70271;SHT31;57680;54.292;18.598;2022-08-19T13:42:42;33.11;42.31
70271;SHT31;57680;54.292;18.598;2022-08-19T13:45:08;33.04;41.98
70271;SHT31;57680;54.292;18.598;2022-08-19T13:47:34;33.14;42.64
70271;SHT31;57680;54.292;18.598;2022-08-19T13:50:03;33.17;41.59
70271;SHT31;57680;54.292;18.598;2022-08-19T13:52:29;32.99;41.65
70271;SHT31;57680;54.292;18.598;2022-08-19T13:54:55;32.87;41.92
70271;SHT31;57680;54.292;18.598;2022-08-19T13:57:21;32.76;42.18
70271;SHT31;57680;54.292;18.598;2022-08-19T13:59:47;32.79;42.23
70271;SHT31;57680;54.292;18.598;2022-08-19T14:02:12;32.94;42.96
70271;SHT31;57680;54.292;18.598;2022-08-19T14:04:38;32.90;42.02
70271;SHT31;57680;54.292;18.598;2022-08-19T14:07:03;32.88;43.11
70271;SHT31;57680;54.292;18.598;2022-08-19T14:09:30;32.76;42.84
70271;SHT31;57680;54.292;18.598;2022-08-19T14:11:55;32.60;43.59
70271;SHT31;57680;54.292;18.598;2022-08-19T14:14:21;32.57;42.81
70271;SHT31;57680;54.292;18.598;2022-08-19T14:16:47;32.63;42.96
70271;SHT31;57680;54.292;18.598;2022-08-19T14:19:13;32.66;42.88
70271;SHT31;57680;54.292;18.598;2022-08-19T14:21:39;32.62;43.48
70271;SHT31;57680;54.292;18.598;2022-08-19T14:24:06;32.57;43.00
70271;SHT31;57680;54.292;18.598;2022-08-19T14:26:31;32.50;43.05
70271;SHT31;57680;54.292;18.598;2022-08-19T14:28:57;32.39;44.10
70271;SHT31;57680;54.292;18.598;2022-08-19T14:31:23;32.28;43.50
70271;SHT31;57680;54.292;18.598;2022-08-19T14:33:49;32.22;44.72
70271;SHT31;57680;54.292;18.598;2022-08-19T14:36:16;32.18;44.08
70271;SHT31;57680;54.292;18.598;2022-08-19T14:38:42;32.18;44.37
70271;SHT31;57680;54.292;18.598;2022-08-19T14:41:14;32.23;44.47
70271;SHT31;57680;54.292;18.598;2022-08-19T14:43:42;32.29;44.27
70271;SHT31;57680;54.292;18.598;2022-08-19T14:46:11;32.25;43.81
70271;SHT31;57680;54.292;18.598;2022-08-19T14:48:37;32.26;44.20
70271;SHT31;57680;54.292;18.598;2022-08-19T14:51:05;32.26;44.56
70271;SHT31;57680;54.292;18.598;2022-08-19T14:53:32;32.22;43.94
70271;SHT31;57680;54.292;18.598;2022-08-19T14:55:59;32.12;43.95
70271;SHT31;57680;54.292;18.598;2022-08-19T14:58:24;32.09;44.60
70271;SHT31;57680;54.292;18.598;2022-08-19T15:00:50;31.99;44.75
70271;SHT31;57680;54.292;18.598;2022-08-19T15:03:16;31.92;45.10
70271;SHT31;57680;54.292;18.598;2022-08-19T15:05:41;31.89;45.55
70271;SHT31;57680;54.292;18.598;2022-08-19T15:08:07;31.84;45.88
70271;SHT31;57680;54.292;18.598;2022-08-19T15:10:32;31.78;45.48
70271;SHT31;57680;54.292;18.598;2022-08-19T15:12:58;31.72;45.85
70271;SHT31;57680;54.292;18.598;2022-08-19T15:15:24;31.68;46.42
70271;SHT31;57680;54.292;18.598;2022-08-19T15:17:50;31.67;46.51
70271;SHT31;57680;54.292;18.598;2022-08-19T15:20:19;31.60;46.48
70271;SHT31;57680;54.292;18.598;2022-08-19T15:22:45;31.51;47.00
70271;SHT31;57680;54.292;18.598;2022-08-19T15:25:14;31.47;46.66
70271;SHT31;57680;54.292;18.598;2022-08-19T15:27:40;31.43;46.91
70271;SHT31;57680;54.292;18.598;2022-08-19T15:30:08;31.41;47.48
70271;SHT31;57680;54.292;18.598;2022-08-19T15:32:34;31.45;46.69